Pagrindinis puslapis
METAR-TAF:

METAR-TAF

Oro uostai :

Bengalūras, Indija

platuma: 13-11-56N, ilguma: 077-42-20E, Aukštis: 915 m

Dabartinis oras

Ataskaita buvo paskelbta 16 minutes, ne 21:30 UTC
Vėjas 8 kt iš Pietų/Pietryčių
Temperatūra 23°C
Drėgmė 83%
Slėgis 1015 hPa
Matomumas: 6000 m
Išsisklaidę debesys ne aukštis 1500 ft

METAR: VOBL 122130Z 16008KT 6000 SCT015 23/20 Q1015 NOSIG

Laikas: 03:16 (21:46 UTC)

Prognozė

Ataskaita buvo paskelbta 1 valandą ir 46 minutes, ne 20:00 UTC
Prognozė galioja nuo 12 metu 21 UTC su 13 metu 06 UTC
Vėjas 2 kt nuo kintamojo kryptimis
Matomumas: 6000 m
Išsisklaidę debesys ne aukštis 1200 ft
Laikinai
nuo 13 metu 00 UTC su 13 metu 03 UTC
Matomumas: 3000 m
Išsisklaidę debesys ne aukštis 1000 ft
rūkana
Tapsmas
nuo 13 metu 03 UTC su 13 metu 04 UTC
Vėjas 10 kt iš Rytų/Pietryčių

TAF: VOBL 122000Z 1221/1306 VRB02KT 6000 SCT012 TEMPO 1300/1303 3000 BR SCT010 BECMG 1303/1304 11010KT

Orai ataskaitas ir orų prognozės (METAR, TAF).

turimą stotys yra geltonos ir raudonos taškus žemėlapyje.

Perkelti pele per norėdami pamatyti stoties vardą.

Tada spustelėkite, norėdami matyti oro stebėjimo ir prognozės.

Norėdami pakeisti žemėlapį: spustelėkite ant žalios mygtukų su juodo kryžiaus žemyn,; žalią mygtuką su brūkšneliu, jei norite nutolinti; arba žalių rodyklių gretimoms žemėlapius.


METAR-TAF: